Time;durP1;ratioP1;P1;durP2;ratioP2;P2;SDS_P1;SDS_P2;PMS_P1;PMS_P2;Temp;Humidity;BMP_temperature;BMP_pressure;BME280_temperature;BME280_humidity;BME280_pressure;Samples;Min_cycle;Max_cycle;Signal;HPM_P1;HPM_P2
2021/09/29 00:02:19;;;;;;;0.00;0.00;;;17.70;99.90;;;;;;4972166;28;20023;-75
2021/09/29 00:04:44;;;;;;;2.72;0.85;;;17.80;99.90;;;;;;4975201;28;20031;-75
2021/09/29 00:07:10;;;;;;;0.88;0.80;;;17.90;99.90;;;;;;4976521;28;20394;-73
2021/09/29 00:09:36;;;;;;;0.00;0.00;;;18.00;99.90;;;;;;4974146;28;20034;-73
2021/09/29 00:12:03;;;;;;;4.47;1.55;;;18.00;99.90;;;;;;4976110;28;20341;-73
2021/09/29 00:14:28;;;;;;;0.10;0.10;;;18.00;99.90;;;;;;4978070;28;20509;-73
2021/09/29 00:16:54;;;;;;;0.00;0.00;;;18.00;99.90;;;;;;4979046;28;20030;-73
2021/09/29 00:19:20;;;;;;;0.98;0.65;;;18.00;99.90;;;;;;4979847;28;20484;-73
2021/09/29 00:21:46;;;;;;;22.75;0.45;;;18.10;99.90;;;;;;4973267;28;20106;-74
2021/09/29 00:24:12;;;;;;;9.80;0.70;;;18.00;99.90;;;;;;4973160;28;20034;-74
2021/09/29 00:26:37;;;;;;;0.00;0.00;;;17.90;99.90;;;;;;4973105;28;20101;-73
2021/09/29 00:29:03;;;;;;;0.00;0.00;;;17.80;99.90;;;;;;4973162;28;20023;-74
2021/09/29 00:34:00;;;;;;;0.00;0.00;;;17.80;99.90;;;;;;4976595;28;20117;-74
2021/09/29 00:36:26;;;;;;;0.25;0.25;;;17.90;99.90;;;;;;4976459;28;20086;-74
2021/09/29 00:38:53;;;;;;;0.00;0.00;;;17.80;99.90;;;;;;4976948;28;20023;-73
2021/09/29 00:41:19;;;;;;;9.73;0.77;;;17.80;99.90;;;;;;4976368;28;20097;-74
2021/09/29 00:43:45;;;;;;;0.25;0.17;;;17.70;99.90;;;;;;4976161;28;20041;-73
2021/09/29 00:46:11;;;;;;;16.67;0.85;;;17.60;99.90;;;;;;4976173;28;20055;-73
2021/09/29 00:48:36;;;;;;;1.80;0.20;;;17.50;99.90;;;;;;4976243;28;20487;-74
2021/09/29 00:51:03;;;;;;;0.00;0.00;;;17.50;99.90;;;;;;4974678;28;20402;-73
2021/09/29 00:53:28;;;;;;;2.10;0.20;;;17.40;99.90;;;;;;4976501;28;20135;-74
2021/09/29 00:55:55;;;;;;;1.17;0.65;;;17.40;99.90;;;;;;4975750;28;20047;-73
2021/09/29 00:58:21;;;;;;;0.80;0.35;;;17.10;99.90;;;;;;4976711;28;20023;-69
2021/09/29 01:00:47;;;;;;;0.05;0.05;;;16.90;99.90;;;;;;4976318;28;20089;-74
2021/09/29 01:03:12;;;;;;;0.32;0.32;;;16.80;99.90;;;;;;4975962;28;20038;-74
2021/09/29 01:05:41;;;;;;;0.22;0.22;;;16.80;99.90;;;;;;4976424;28;20031;-74
2021/09/29 01:08:07;;;;;;;0.00;0.00;;;16.70;99.90;;;;;;4976117;28;20023;-74
2021/09/29 01:10:52;;;;;;;0.20;0.20;;;16.80;99.90;;;;;;4975902;28;20089;-74
2021/09/29 01:13:40;;;;;;;0.00;0.00;;;16.80;99.90;;;;;;4975532;28;20022;-75
2021/09/29 01:16:08;;;;;;;0.00;0.00;;;16.90;99.90;;;;;;4975606;28;20033;-74
2021/09/29 01:18:38;;;;;;;0.00;0.00;;;17.00;99.90;;;;;;4974347;28;20053;-74
2021/09/29 01:21:09;;;;;;;0.10;0.10;;;17.10;99.90;;;;;;4975490;28;20038;-73
2021/09/29 01:23:54;;;;;;;1.45;1.08;;;17.10;99.90;;;;;;4975787;28;20034;-74
2021/09/29 01:26:27;;;;;;;0.00;0.00;;;17.00;99.90;;;;;;4975647;28;20037;-73
2021/09/29 01:29:00;;;;;;;0.10;0.10;;;16.80;99.90;;;;;;4975587;28;20037;-74
2021/09/29 01:31:26;;;;;;;2.03;0.83;;;16.70;99.90;;;;;;4975849;28;20098;-74
2021/09/29 01:33:52;;;;;;;0.25;0.25;;;16.70;99.90;;;;;;4975505;28;20456;-74
2021/09/29 01:36:21;;;;;;;0.00;0.00;;;16.70;99.90;;;;;;4975690;28;20034;-74
2021/09/29 01:38:50;;;;;;;0.00;0.00;;;16.70;99.90;;;;;;4975441;28;20118;-73
2021/09/29 01:41:16;;;;;;;0.00;0.00;;;16.80;99.90;;;;;;4974335;28;20062;-74
2021/09/29 01:43:41;;;;;;;0.05;0.05;;;16.80;99.90;;;;;;4975970;28;20050;-73
2021/09/29 01:46:07;;;;;;;1.85;1.75;;;16.80;99.90;;;;;;4975219;28;20427;-74
2021/09/29 01:48:44;;;;;;;0.20;0.20;;;16.80;99.90;;;;;;4975241;28;20051;-75
2021/09/29 01:51:11;;;;;;;0.98;0.98;;;16.50;99.90;;;;;;4975122;28;20023;-75
2021/09/29 01:53:37;;;;;;;10.88;0.65;;;16.30;99.90;;;;;;4975315;28;20018;-74
2021/09/29 01:56:04;;;;;;;0.00;0.00;;;16.20;99.90;;;;;;4974273;28;20097;-73
2021/09/29 01:58:31;;;;;;;0.00;0.00;;;16.20;99.90;;;;;;4973385;28;20133;-73
2021/09/29 02:00:57;;;;;;;0.47;0.47;;;16.10;99.90;;;;;;4975218;28;20062;-73
2021/09/29 02:03:23;;;;;;;0.00;0.00;;;16.10;99.90;;;;;;4975081;28;20054;-73
2021/09/29 02:05:50;;;;;;;0.00;0.00;;;16.00;99.90;;;;;;4974729;28;20152;-73
2021/09/29 02:08:17;;;;;;;0.22;0.22;;;16.10;99.90;;;;;;4974943;28;20081;-73
2021/09/29 02:10:42;;;;;;;0.38;0.38;;;16.10;99.90;;;;;;4974709;28;20034;-73
2021/09/29 02:13:08;;;;;;;0.10;0.10;;;16.10;99.90;;;;;;4974920;28;20026;-74
2021/09/29 02:15:34;;;;;;;0.17;0.00;;;16.10;99.90;;;;;;4982258;28;20481;-73
2021/09/29 02:17:59;;;;;;;0.00;0.00;;;16.20;99.90;;;;;;4993765;28;20065;-73
2021/09/29 02:20:25;;;;;;;0.00;0.00;;;16.30;99.90;;;;;;4994546;28;20038;-73
2021/09/29 02:22:51;;;;;;;0.25;0.25;;;16.30;99.90;;;;;;4994061;28;20030;-73
2021/09/29 02:25:17;;;;;;;0.63;0.63;;;16.40;99.90;;;;;;4992584;28;20073;-74
2021/09/29 02:27:43;;;;;;;1.52;1.00;;;16.40;99.90;;;;;;4993937;28;20498;-73
2021/09/29 02:30:10;;;;;;;0.00;0.00;;;16.70;99.90;;;;;;4993771;28;20018;-73
2021/09/29 02:32:37;;;;;;;1.38;0.50;;;16.70;99.90;;;;;;4984910;28;20524;-74
2021/09/29 02:35:07;;;;;;;0.00;0.00;;;16.80;99.90;;;;;;4974561;28;20401;-73
2021/09/29 02:37:33;;;;;;;0.00;0.00;;;16.70;99.90;;;;;;4973753;28;20482;-74
2021/09/29 02:39:58;;;;;;;0.00;0.00;;;16.50;99.90;;;;;;4973130;28;20169;-74
2021/09/29 02:42:24;;;;;;;2.55;1.23;;;16.40;99.90;;;;;;4974369;28;20031;-73
2021/09/29 02:44:50;;;;;;;0.00;0.00;;;16.20;99.90;;;;;;4971327;28;20446;-73
2021/09/29 02:47:16;;;;;;;0.95;0.88;;;16.20;99.90;;;;;;4953599;28;20070;-73
2021/09/29 02:49:41;;;;;;;0.28;0.28;;;16.10;99.90;;;;;;4953797;29;20039;-73
2021/09/29 02:52:07;;;;;;;0.00;0.00;;;16.10;99.90;;;;;;4954549;28;20102;-73
2021/09/29 02:54:33;;;;;;;0.57;0.57;;;16.10;99.90;;;;;;4954969;28;20073;-73
2021/09/29 02:56:58;;;;;;;0.00;0.00;;;16.10;99.90;;;;;;4954051;29;20538;-74
2021/09/29 02:59:24;;;;;;;0.15;0.15;;;16.10;99.90;;;;;;4953672;29;20027;-74
2021/09/29 03:01:50;;;;;;;2.10;1.55;;;16.00;99.90;;;;;;4954786;28;20030;-73
2021/09/29 03:04:15;;;;;;;0.00;0.00;;;16.10;99.90;;;;;;4954781;28;20398;-73
2021/09/29 03:06:41;;;;;;;0.10;0.10;;;16.10;99.90;;;;;;4954833;29;20054;-74
2021/09/29 03:09:07;;;;;;;1.17;1.08;;;16.10;99.90;;;;;;4954802;28;20027;-74
2021/09/29 03:11:33;;;;;;;3.30;0.20;;;16.00;99.90;;;;;;4953382;28;20023;-74
2021/09/29 03:13:58;;;;;;;0.98;0.85;;;15.90;99.90;;;;;;4953446;29;20031;-74
2021/09/29 03:16:24;;;;;;;0.00;0.00;;;16.00;99.90;;;;;;4982302;28;20042;-73
2021/09/29 03:18:50;;;;;;;0.10;0.10;;;15.90;99.90;;;;;;4993218;28;20042;-73
2021/09/29 03:21:16;;;;;;;9.32;1.23;;;15.90;99.90;;;;;;4993246;28;20030;-73
2021/09/29 03:23:42;;;;;;;0.00;0.00;;;15.90;99.90;;;;;;4993779;28;20030;-74
2021/09/29 03:26:09;;;;;;;0.73;0.20;;;16.00;99.90;;;;;;4992937;28;20023;-74
2021/09/29 03:28:34;;;;;;;1.27;1.17;;;15.90;99.90;;;;;;4992364;28;20109;-73
2021/09/29 03:31:00;;;;;;;0.00;0.00;;;15.90;99.90;;;;;;4993036;28;20046;-73
2021/09/29 03:33:26;;;;;;;0.00;0.00;;;15.90;99.90;;;;;;4977032;28;20393;-74
2021/09/29 03:35:52;;;;;;;0.43;0.43;;;15.80;99.90;;;;;;4973530;28;20023;-73
2021/09/29 03:38:17;;;;;;;0.00;0.00;;;15.80;99.90;;;;;;4972432;28;20074;-74
2021/09/29 03:40:43;;;;;;;0.00;0.00;;;15.80;99.90;;;;;;4972228;28;20050;-74
2021/09/29 03:43:09;;;;;;;0.00;0.00;;;15.70;99.90;;;;;;4973890;28;20039;-73
2021/09/29 03:45:35;;;;;;;0.00;0.00;;;15.80;99.90;;;;;;4973481;28;20027;-74
2021/09/29 03:48:01;;;;;;;0.00;0.00;;;15.80;99.90;;;;;;4973297;28;20105;-73
2021/09/29 03:50:27;;;;;;;0.25;0.10;;;15.80;99.90;;;;;;4973387;28;20030;-73
2021/09/29 03:52:52;;;;;;;0.00;0.00;;;15.80;99.90;;;;;;4973638;28;20478;-73
2021/09/29 03:55:18;;;;;;;0.00;0.00;;;15.70;99.90;;;;;;4973370;28;20019;-74
2021/09/29 03:57:44;;;;;;;0.00;0.00;;;15.70;99.90;;;;;;4972691;28;20073;-74
2021/09/29 04:00:12;;;;;;;0.00;0.00;;;15.70;99.90;;;;;;4973194;28;20456;-74
2021/09/29 04:02:38;;;;;;;0.73;0.50;;;15.70;99.90;;;;;;4973730;28;20031;-73
2021/09/29 04:05:06;;;;;;;1.55;0.22;;;15.70;99.90;;;;;;4974592;28;20023;-73
2021/09/29 04:07:32;;;;;;;8.07;2.22;;;15.70;99.90;;;;;;4977367;28;20066;-73
2021/09/29 04:09:58;;;;;;;0.00;0.00;;;15.70;99.90;;;;;;4976907;28;20023;-73
2021/09/29 04:12:24;;;;;;;12.85;0.32;;;15.70;99.90;;;;;;4975603;28;20023;-74
2021/09/29 04:14:51;;;;;;;0.30;0.25;;;15.70;99.90;;;;;;4976432;28;20478;-73
2021/09/29 04:17:17;;;;;;;0.00;0.00;;;15.80;99.90;;;;;;4976632;28;20027;-74
2021/09/29 04:19:43;;;;;;;0.00;0.00;;;15.80;99.90;;;;;;4976973;28;20402;-74
2021/09/29 04:22:10;;;;;;;0.00;0.00;;;15.80;99.90;;;;;;4975606;28;20110;-74
2021/09/29 04:24:41;;;;;;;20.63;2.90;;;15.80;99.90;;;;;;4976569;28;20027;-74
2021/09/29 04:27:08;;;;;;;0.25;0.25;;;15.90;99.90;;;;;;4976628;28;20035;-73
2021/09/29 04:29:35;;;;;;;0.00;0.00;;;15.90;99.90;;;;;;4976732;28;20019;-72
2021/09/29 04:32:00;;;;;;;0.00;0.00;;;15.90;99.90;;;;;;4976787;28;20105;-74
2021/09/29 04:34:26;;;;;;;0.00;0.00;;;15.90;99.90;;;;;;4976416;28;20150;-74
2021/09/29 04:36:52;;;;;;;0.05;0.05;;;15.90;99.90;;;;;;4976688;28;20445;-74
2021/09/29 04:39:18;;;;;;;0.00;0.00;;;15.80;99.90;;;;;;4976311;28;20022;-74
2021/09/29 04:41:43;;;;;;;0.85;0.60;;;15.80;99.90;;;;;;4976654;28;20031;-73
2021/09/29 04:44:09;;;;;;;0.00;0.00;;;15.80;99.90;;;;;;4976090;28;20494;-74
2021/09/29 04:46:35;;;;;;;0.77;0.68;;;15.80;99.90;;;;;;4960621;28;20126;-74
2021/09/29 04:49:01;;;;;;;0.00;0.00;;;15.80;99.90;;;;;;4956839;28;20082;-73
2021/09/29 04:51:27;;;;;;;0.00;0.00;;;15.80;99.90;;;;;;4956828;28;20541;-74
2021/09/29 04:53:53;;;;;;;10.38;0.45;;;15.80;99.90;;;;;;4957137;28;20023;-74
2021/09/29 04:56:19;;;;;;;0.00;0.00;;;15.90;99.90;;;;;;4956659;28;20078;-74
2021/09/29 04:58:44;;;;;;;0.00;0.00;;;15.80;99.90;;;;;;4952909;28;20034;-73
2021/09/29 05:01:12;;;;;;;0.00;0.00;;;15.80;99.90;;;;;;4974566;28;20031;-74
2021/09/29 05:03:38;;;;;;;0.98;0.65;;;15.70;99.90;;;;;;4974692;28;20031;-74
2021/09/29 05:06:03;;;;;;;0.63;0.63;;;15.60;99.90;;;;;;4975929;28;20086;-74
2021/09/29 05:08:32;;;;;;;0.13;0.13;;;15.50;99.90;;;;;;4975786;28;20037;-73
2021/09/29 05:11:16;;;;;;;0.63;0.63;;;15.50;99.90;;;;;;4975410;28;20070;-74
2021/09/29 05:13:41;;;;;;;;;;;15.40;99.90;;;;;;4976306;28;20022;-74
2021/09/29 05:16:07;;;;;;;1.90;1.73;;;15.30;99.90;;;;;;4974959;28;19914;-73
2021/09/29 05:18:33;;;;;;;0.00;0.00;;;15.30;99.90;;;;;;4975271;28;20054;-74
2021/09/29 05:20:58;;;;;;;0.20;0.20;;;15.20;99.90;;;;;;4975666;28;20023;-74
2021/09/29 05:23:24;;;;;;;0.00;0.00;;;15.20;99.90;;;;;;4974385;28;20038;-74
2021/09/29 05:25:50;;;;;;;0.00;0.00;;;15.20;99.90;;;;;;4975266;28;20034;-73
2021/09/29 05:28:18;;;;;;;0.00;0.00;;;15.10;99.90;;;;;;4974689;28;20034;-74
2021/09/29 05:30:44;;;;;;;0.00;0.00;;;15.10;99.90;;;;;;4971652;28;20022;-73
2021/09/29 05:33:10;;;;;;;1.10;0.52;;;15.00;99.90;;;;;;4973129;28;20157;-73
2021/09/29 05:35:36;;;;;;;0.00;0.00;;;15.00;99.90;;;;;;4970646;28;20502;-73
2021/09/29 05:38:02;;;;;;;0.00;0.00;;;15.00;99.90;;;;;;4971501;28;20055;-74
2021/09/29 05:40:28;;;;;;;2.03;1.35;;;15.00;99.90;;;;;;4974712;28;20105;-74
2021/09/29 05:42:54;;;;;;;0.20;0.20;;;15.00;99.90;;;;;;4975246;28;20035;-73
2021/09/29 05:45:20;;;;;;;0.00;0.00;;;14.90;99.90;;;;;;4974798;28;20037;-73
2021/09/29 05:47:46;;;;;;;1.67;0.20;;;14.90;99.90;;;;;;4972130;28;20074;-72
2021/09/29 05:50:12;;;;;;;0.00;0.00;;;14.90;99.90;;;;;;4991927;28;20022;-74
2021/09/29 05:52:38;;;;;;;1.15;1.08;;;14.80;99.90;;;;;;4986301;28;20057;-74
2021/09/29 05:55:05;;;;;;;0.00;0.00;;;14.80;99.90;;;;;;4981811;28;20090;-73
2021/09/29 05:57:30;;;;;;;0.38;0.25;;;14.80;99.90;;;;;;4971627;28;20042;-72
2021/09/29 05:59:56;;;;;;;0.00;0.00;;;14.70;99.90;;;;;;4978371;28;20517;-72
2021/09/29 06:02:22;;;;;;;0.00;0.00;;;14.70;99.90;;;;;;4992367;28;20089;-73
2021/09/29 06:04:48;;;;;;;0.10;0.10;;;14.70;99.90;;;;;;4974770;28;20117;-73
2021/09/29 06:07:16;;;;;;;0.00;0.00;;;14.60;99.90;;;;;;4973186;28;20027;-74
2021/09/29 06:09:42;;;;;;;0.03;0.03;;;14.60;99.90;;;;;;4975958;28;20532;-73
2021/09/29 06:12:08;;;;;;;0.00;0.00;;;14.50;99.90;;;;;;4984859;28;20054;-74
2021/09/29 06:14:35;;;;;;;2.97;1.83;;;14.50;99.90;;;;;;4973599;28;20037;-72
2021/09/29 06:17:11;;;;;;;0.38;0.38;;;14.40;99.90;;;;;;4974146;28;20033;-72
2021/09/29 06:19:38;;;;;;;0.35;0.35;;;14.40;99.90;;;;;;4973171;28;20509;-73
2021/09/29 06:22:06;;;;;;;0.00;0.00;;;14.40;99.90;;;;;;4959271;28;20034;-73
2021/09/29 06:24:32;;;;;;;0.00;0.00;;;14.30;99.90;;;;;;4975334;28;20027;-73
2021/09/29 06:26:57;;;;;;;0.00;0.00;;;14.40;99.90;;;;;;4979076;28;20018;-73
2021/09/29 06:29:23;;;;;;;0.00;0.00;;;14.40;99.90;;;;;;4972198;28;20030;-73
2021/09/29 06:31:52;;;;;;;0.00;0.00;;;14.40;99.90;;;;;;4980723;28;20121;-74
2021/09/29 06:34:18;;;;;;;0.00;0.00;;;14.50;99.90;;;;;;4970958;28;20033;-72
2021/09/29 06:36:43;;;;;;;1.92;1.35;;;14.70;99.90;;;;;;4974231;28;20039;-73
2021/09/29 06:39:10;;;;;;;0.00;0.00;;;15.00;99.90;;;;;;4973309;28;20114;-72
2021/09/29 06:41:35;;;;;;;1.15;1.10;;;15.20;99.90;;;;;;4972332;28;20073;-73
2021/09/29 06:44:01;;;;;;;0.00;0.00;;;15.30;99.90;;;;;;4970002;28;20035;-73
2021/09/29 06:46:27;;;;;;;0.00;0.00;;;15.40;99.90;;;;;;4975360;28;20071;-73
2021/09/29 06:48:52;;;;;;;1.38;1.00;;;15.50;99.90;;;;;;4973294;28;20042;-73
2021/09/29 06:51:18;;;;;;;0.00;0.00;;;15.50;99.90;;;;;;4972357;28;20023;-73
2021/09/29 06:53:44;;;;;;;0.20;0.20;;;15.50;99.90;;;;;;4961981;28;20034;-73
2021/09/29 06:56:09;;;;;;;0.00;0.00;;;15.40;99.90;;;;;;4965881;28;20562;-73
2021/09/29 06:58:36;;;;;;;0.90;0.25;;;15.40;99.90;;;;;;4972343;28;20383;-73
2021/09/29 07:01:02;;;;;;;0.00;0.00;;;15.50;99.90;;;;;;4976443;28;20027;-73
2021/09/29 07:03:28;;;;;;;0.10;0.10;;;15.70;99.90;;;;;;4984785;28;20057;-73
2021/09/29 07:05:55;;;;;;;0.00;0.00;;;15.90;99.90;;;;;;4969583;28;20560;-73
2021/09/29 07:08:21;;;;;;;0.00;0.00;;;15.90;99.90;;;;;;4975420;28;20027;-70
2021/09/29 07:10:47;;;;;;;0.10;0.10;;;16.00;99.90;;;;;;4967946;28;20371;-74
2021/09/29 07:13:13;;;;;;;0.00;0.00;;;16.10;99.90;;;;;;4974560;28;20096;-74
2021/09/29 07:15:39;;;;;;;0.00;0.00;;;16.20;99.90;;;;;;4957324;28;20023;-75
2021/09/29 07:18:07;;;;;;;0.20;0.20;;;16.30;99.90;;;;;;4969950;28;20050;-75
2021/09/29 07:20:33;;;;;;;0.85;0.85;;;16.40;99.90;;;;;;4972465;28;20035;-75
2021/09/29 07:22:59;;;;;;;0.10;0.10;;;16.50;99.90;;;;;;4974458;28;20045;-75
2021/09/29 07:25:28;;;;;;;0.00;0.00;;;16.40;99.90;;;;;;4971591;28;20088;-76
2021/09/29 07:27:54;;;;;;;0.00;0.00;;;16.30;99.90;;;;;;4982561;28;20027;-75
2021/09/29 07:30:20;;;;;;;0.10;0.10;;;16.30;99.90;;;;;;4976848;28;20470;-75
2021/09/29 07:32:46;;;;;;;0.10;0.10;;;16.40;99.90;;;;;;4985148;28;20033;-75
2021/09/29 07:35:13;;;;;;;1.10;0.60;;;16.40;99.90;;;;;;4980758;28;20380;-76
2021/09/29 07:37:38;;;;;;;0.00;0.00;;;16.40;99.90;;;;;;4969854;28;20495;-76
2021/09/29 07:40:06;;;;;;;0.00;0.00;;;16.30;99.90;;;;;;4976346;28;20034;-75
2021/09/29 07:42:31;;;;;;;0.00;0.00;;;16.40;99.90;;;;;;4979632;28;20532;-76
2021/09/29 07:44:57;;;;;;;0.00;0.00;;;16.50;99.90;;;;;;4993045;28;20030;-75
2021/09/29 07:47:23;;;;;;;0.10;0.10;;;16.60;99.90;;;;;;4978906;28;20533;-76
2021/09/29 07:49:48;;;;;;;0.00;0.00;;;16.90;99.90;;;;;;4976251;28;20030;-76
2021/09/29 07:52:14;;;;;;;0.00;0.00;;;16.90;99.90;;;;;;4969204;28;20026;-76
2021/09/29 07:54:40;;;;;;;0.00;0.00;;;16.90;99.90;;;;;;4962812;28;20031;-76
2021/09/29 07:57:16;;;;;;;0.30;0.30;;;16.70;99.90;;;;;;4976104;28;20090;-75
2021/09/29 07:59:55;;;;;;;0.52;0.38;;;16.50;99.90;;;;;;4974255;28;20085;-76
2021/09/29 08:02:20;;;;;;;4.68;0.20;;;16.30;99.90;;;;;;4973576;28;20506;-75
2021/09/29 08:04:46;;;;;;;0.00;0.00;;;16.20;99.90;;;;;;4975065;28;20078;-75
2021/09/29 08:07:13;;;;;;;0.00;0.00;;;16.20;99.90;;;;;;4974450;28;21976;-74
2021/09/29 08:09:39;;;;;;;0.00;0.00;;;16.20;99.90;;;;;;4984825;28;20011;-76
2021/09/29 08:12:05;;;;;;;0.10;0.10;;;16.30;99.90;;;;;;4976446;28;20686;-76
2021/09/29 08:14:32;;;;;;;0.00;0.00;;;16.40;99.90;;;;;;4977489;28;20023;-75
2021/09/29 08:16:58;;;;;;;0.35;0.35;;;16.40;99.90;;;;;;4967776;28;20023;-76
2021/09/29 08:19:24;;;;;;;0.00;0.00;;;16.40;99.90;;;;;;4976714;28;20033;-76
2021/09/29 08:21:49;;;;;;;0.10;0.10;;;16.40;99.90;;;;;;4976492;28;20032;-75
2021/09/29 08:24:20;;;;;;;0.00;0.00;;;16.70;99.90;;;;;;4973310;28;20034;-76
2021/09/29 08:32:23;;;;;;;0.32;0.32;;;17.40;99.90;;;;;;4975317;28;20058;-77
2021/09/29 08:37:48;;;;;;;2.50;0.05;;;17.40;99.90;;;;;;4955488;28;20042;-76
2021/09/29 08:40:20;;;;;;;0.00;0.00;;;17.20;99.90;;;;;;4975010;28;20479;-76
2021/09/29 08:48:12;;;;;;;0.52;0.52;;;17.10;99.90;;;;;;4985140;28;20141;-76
2021/09/29 08:56:21;;;;;;;0.00;0.00;;;17.70;99.90;;;;;;4935754;28;20097;-75
2021/09/29 09:18:15;;;;;;;0.00;0.00;;;17.80;99.90;;;;;;4951630;28;20038;-77
2021/09/29 09:20:46;;;;;;;0.00;0.00;;;17.90;99.90;;;;;;4969119;28;20039;-77
2021/09/29 09:23:11;;;;;;;0.00;0.00;;;18.20;99.90;;;;;;4954749;28;20012;-77
2021/09/29 09:25:40;;;;;;;0.00;0.00;;;18.60;99.90;;;;;;4972675;28;20098;-76
2021/09/29 09:28:11;;;;;;;0.00;0.00;;;19.00;99.90;;;;;;4968152;28;20121;-76
2021/09/29 09:30:38;;;;;;;0.00;0.00;;;19.80;99.90;;;;;;4953229;28;20399;-76
2021/09/29 09:33:05;;;;;;;0.82;0.38;;;21.10;99.40;;;;;;4955837;28;20019;-77
2021/09/29 09:35:42;;;;;;;0.10;0.10;;;21.40;97.20;;;;;;4969037;28;20035;-76
2021/09/29 09:38:20;;;;;;;0.00;0.00;;;21.30;97.70;;;;;;4951676;28;20110;-77
2021/09/29 09:40:51;;;;;;;0.00;0.00;;;20.60;98.20;;;;;;4951817;28;20035;-77
2021/09/29 09:43:17;;;;;;;7.40;0.10;;;20.60;98.50;;;;;;4949109;28;20058;-76
2021/09/29 09:45:45;;;;;;;0.10;0.10;;;20.40;97.20;;;;;;4957868;28;20063;-76
2021/09/29 09:48:21;;;;;;;0.00;0.00;;;20.60;97.00;;;;;;4966745;28;20038;-76
2021/09/29 09:50:47;;;;;;;0.00;0.00;;;20.30;97.50;;;;;;4949626;28;20086;-76
2021/09/29 09:53:14;;;;;;;0.05;0.05;;;20.10;98.10;;;;;;4954432;28;20024;-76
2021/09/29 09:55:41;;;;;;;0.00;0.00;;;19.90;97.10;;;;;;4951885;29;20362;-76
2021/09/29 09:58:08;;;;;;;0.00;0.00;;;19.90;97.60;;;;;;4962105;28;20042;-76
2021/09/29 10:00:36;;;;;;;0.00;0.00;;;20.00;97.80;;;;;;4948630;28;20031;-77
2021/09/29 10:03:02;;;;;;;0.63;0.50;;;20.00;97.30;;;;;;4955311;28;20470;-77
2021/09/29 10:05:30;;;;;;;0.00;0.00;;;20.00;96.30;;;;;;4954835;28;20035;-77
2021/09/29 10:07:58;;;;;;;2.25;0.40;;;20.50;95.90;;;;;;4952114;28;20415;-77
2021/09/29 10:27:20;;;;;;;0.00;0.00;;;21.30;93.60;;;;;;5055172;28;20123;-77
2021/09/29 10:29:57;;;;;;;0.00;0.00;;;20.90;92.50;;;;;;5065670;28;20024;-77
2021/09/29 10:32:32;;;;;;;1.88;0.35;;;20.50;91.70;;;;;;5076205;28;20052;-77
2021/09/29 10:37:52;;;;;;;0.15;0.05;;;20.20;92.00;;;;;;5060032;28;20036;-77
2021/09/29 10:40:54;;;;;;;0.00;0.00;;;20.10;92.70;;;;;;5065284;28;20474;-77
2021/09/29 10:43:29;;;;;;;0.00;0.00;;;20.20;93.00;;;;;;5065702;28;20036;-77
2021/09/29 10:49:07;;;;;;;0.80;0.20;;;20.30;94.10;;;;;;5067436;28;20070;-77
2021/09/29 11:30:23;;;;;;;1.75;0.95;;;20.10;91.00;;;;;;5064761;28;20384;-77
2021/09/29 11:32:57;;;;;;;0.00;0.00;;;20.00;92.10;;;;;;5069471;28;20028;-77
2021/09/29 12:08:36;;;;;;;0.10;0.10;;;20.30;88.50;;;;;;5054182;28;20032;-77
2021/09/29 12:11:10;;;;;;;0.00;0.00;;;20.30;86.80;;;;;;5042489;28;20107;-76
2021/09/29 12:13:44;;;;;;;0.00;0.00;;;20.40;87.50;;;;;;5055524;28;20024;-77
2021/09/29 12:16:10;;;;;;;0.10;0.10;;;20.20;86.30;;;;;;5048289;28;20496;-77
2021/09/29 12:18:36;;;;;;;0.00;0.00;;;20.10;87.50;;;;;;5042758;28;20033;-77
2021/09/29 12:21:02;;;;;;;0.98;0.22;;;20.10;87.50;;;;;;5055053;28;20016;-76
2021/09/29 12:23:28;;;;;;;0.65;0.28;;;20.20;89.20;;;;;;5054442;28;20049;-76
2021/09/29 12:26:17;;;;;;;0.00;0.00;;;20.40;89.90;;;;;;5051889;28;20079;-76
2021/09/29 12:28:58;;;;;;;0.00;0.00;;;20.30;86.10;;;;;;5051510;28;20022;-77
2021/09/29 12:37:05;;;;;;;0.03;0.00;;;20.30;84.10;;;;;;5030927;28;20381;-76
2021/09/29 12:39:31;;;;;;;1.80;0.13;;;20.30;84.60;;;;;;5029768;28;20647;-76
2021/09/29 12:41:57;;;;;;;0.00;0.00;;;20.40;84.30;;;;;;5041299;28;20044;-77
2021/09/29 12:44:23;;;;;;;0.00;0.00;;;20.50;85.60;;;;;;5037090;28;20033;-77
2021/09/29 12:47:07;;;;;;;0.00;0.00;;;20.60;85.90;;;;;;5040669;28;20511;-77
2021/09/29 12:49:33;;;;;;;0.32;0.32;;;20.80;83.80;;;;;;5037935;28;20033;-77
2021/09/29 12:52:06;;;;;;;0.00;0.00;;;20.70;86.40;;;;;;5037092;28;20063;-77
2021/09/29 12:54:31;;;;;;;0.00;0.00;;;20.60;84.10;;;;;;5047812;28;20112;-77
2021/09/29 12:56:57;;;;;;;0.00;0.00;;;20.70;86.80;;;;;;5032204;28;20647;-77
2021/09/29 12:59:23;;;;;;;0.00;0.00;;;20.70;83.90;;;;;;5024941;28;20065;-77
2021/09/29 13:01:48;;;;;;;0.75;0.22;;;20.50;84.30;;;;;;5029215;28;20065;-77
2021/09/29 13:04:14;;;;;;;0.35;0.25;;;20.50;84.20;;;;;;5038955;28;20071;-77
2021/09/29 13:06:41;;;;;;;1.95;0.10;;;20.60;84.30;;;;;;5027066;28;20060;-77
2021/09/29 13:09:06;;;;;;;0.00;0.00;;;20.80;85.80;;;;;;5044878;28;20078;-77
2021/09/29 13:11:32;;;;;;;0.00;0.00;;;20.80;84.80;;;;;;5051918;28;20033;-77
2021/09/29 13:13:58;;;;;;;0.00;0.00;;;20.80;85.10;;;;;;5054731;28;20493;-77
2021/09/29 13:16:25;;;;;;;0.00;0.00;;;20.80;82.50;;;;;;5048006;28;20098;-76
2021/09/29 13:21:25;;;;;;;0.00;0.00;;;21.00;83.00;;;;;;5050347;28;20492;-77
2021/09/29 13:37:03;;;;;;;0.30;0.20;;;21.20;84.50;;;;;;5045811;28;20071;-77
2021/09/29 13:39:29;;;;;;;0.00;0.00;;;21.10;82.50;;;;;;5054333;28;20041;-76
2021/09/29 13:41:55;;;;;;;0.10;0.00;;;20.90;82.50;;;;;;5046943;28;20814;-77
2021/09/29 13:44:23;;;;;;;0.50;0.50;;;20.70;82.60;;;;;;5063237;28;20560;-77
2021/09/29 13:46:49;;;;;;;0.15;0.15;;;20.80;82.90;;;;;;5052933;28;20037;-77
2021/09/29 13:49:14;;;;;;;0.00;0.00;;;21.00;83.30;;;;;;5049191;28;20068;-77
2021/09/29 13:51:45;;;;;;;0.00;0.00;;;21.20;81.60;;;;;;5059379;28;20017;-77
2021/09/29 13:54:14;;;;;;;3.10;1.25;;;21.50;82.80;;;;;;5063731;28;20123;-77
2021/09/29 14:34:18;;;;;;;3.72;1.13;;;21.50;88.10;;;;;;5048435;28;20032;-76
2021/09/29 14:36:44;;;;;;;0.00;0.00;;;21.30;88.60;;;;;;5048869;28;20064;-77
2021/09/29 14:39:10;;;;;;;0.30;0.30;;;21.20;89.10;;;;;;5054605;28;20087;-77
2021/09/29 14:41:36;;;;;;;0.15;0.15;;;21.20;87.60;;;;;;5050243;28;20028;-76
2021/09/29 14:44:02;;;;;;;0.00;0.00;;;21.20;87.10;;;;;;5048753;28;20508;-77
2021/09/29 14:46:28;;;;;;;1.00;0.70;;;21.30;88.20;;;;;;5055630;28;20029;-77
2021/09/29 14:48:53;;;;;;;0.00;0.00;;;21.40;87.30;;;;;;5048912;28;20140;-78
2021/09/29 14:51:19;;;;;;;0.00;0.00;;;21.40;87.50;;;;;;5035271;28;20030;-76
2021/09/29 14:53:48;;;;;;;0.00;0.00;;;21.40;87.40;;;;;;5049012;28;20495;-76
2021/09/29 14:56:16;;;;;;;0.17;0.17;;;21.40;89.30;;;;;;5062237;28;20071;-75
2021/09/29 14:58:43;;;;;;;0.00;0.00;;;21.60;88.60;;;;;;5052580;28;20491;-75
2021/09/29 15:01:08;;;;;;;0.00;0.00;;;21.70;89.00;;;;;;5066369;28;20040;-76
2021/09/29 15:03:35;;;;;;;0.10;0.10;;;21.70;89.80;;;;;;5032203;28;20033;-76
2021/09/29 15:06:03;;;;;;;0.00;0.00;;;21.50;90.00;;;;;;5030435;28;20049;-75
2021/09/29 15:08:29;;;;;;;0.32;0.32;;;21.40;89.20;;;;;;5032013;28;20021;-75
2021/09/29 15:10:55;;;;;;;0.60;0.30;;;21.60;90.10;;;;;;5035104;28;20033;-76
2021/09/29 15:13:27;;;;;;;0.17;0.17;;;21.70;89.90;;;;;;5036043;28;20033;-76
2021/09/29 15:16:00;;;;;;;0.00;0.00;;;21.80;89.20;;;;;;5055278;28;20029;-75
2021/09/29 15:18:36;;;;;;;0.00;0.00;;;21.80;89.60;;;;;;5055352;28;20028;-75
2021/09/29 15:24:28;;;;;;;0.00;0.00;;;21.20;90.40;;;;;;5024420;28;20050;-75
2021/09/29 15:50:56;;;;;;;0.00;0.00;;;21.40;90.30;;;;;;5051589;28;20056;-75
2021/09/29 15:56:02;;;;;;;0.00;0.00;;;21.30;90.60;;;;;;5055224;28;20043;-76
2021/09/29 16:12:27;;;;;;;1.55;0.75;;;22.60;88.50;;;;;;5053905;28;20036;-76
2021/09/29 16:23:21;;;;;;;1.13;0.22;;;23.00;86.70;;;;;;5054116;28;20427;-77
2021/09/29 16:31:23;;;;;;;0.47;0.47;;;22.30;88.40;;;;;;5054219;28;20455;-76
2021/09/29 16:33:59;;;;;;;0.00;0.00;;;22.40;89.00;;;;;;5052981;28;20032;-76
2021/09/29 16:36:25;;;;;;;0.50;0.22;;;22.20;89.40;;;;;;5054158;28;20370;-76
2021/09/29 16:38:51;;;;;;;0.17;0.15;;;22.20;89.70;;;;;;5054690;28;20032;-76
2021/09/29 16:41:18;;;;;;;0.17;0.17;;;22.00;88.90;;;;;;5055197;28;20021;-77
2021/09/29 16:43:45;;;;;;;0.75;0.75;;;21.70;90.00;;;;;;5057354;28;20029;-77
2021/09/29 16:46:14;;;;;;;0.00;0.00;;;21.60;90.30;;;;;;5063288;28;20028;-76
2021/09/29 16:48:40;;;;;;;0.00;0.00;;;21.50;90.50;;;;;;5056837;28;20032;-76
2021/09/29 16:51:12;;;;;;;0.13;0.13;;;21.10;90.40;;;;;;5061877;28;20021;-76
2021/09/29 16:53:44;;;;;;;0.45;0.35;;;20.70;90.70;;;;;;5065143;28;20055;-75
2021/09/29 16:56:11;;;;;;;0.90;0.30;;;20.70;91.10;;;;;;5056763;28;20024;-76
2021/09/29 17:01:36;;;;;;;0.00;0.00;;;20.10;91.70;;;;;;5052879;28;20033;-77
2021/09/29 17:04:02;;;;;;;0.60;0.60;;;19.80;92.00;;;;;;5053629;28;20032;-77
2021/09/29 17:06:27;;;;;;;0.03;0.03;;;19.40;92.40;;;;;;5053537;28;20014;-77